Time;durP1;ratioP1;P1;durP2;ratioP2;P2;SDS_P1;SDS_P2;PMS_P1;PMS_P2;Temp;Humidity;BMP_temperature;BMP_pressure;BME280_temperature;BME280_humidity;BME280_pressure;Samples;Min_cycle;Max_cycle;Signal;HPM_P1;HPM_P2
2023/05/03 00:00:45;;;;;;;2.90;1.20;;;;;;;19.43;36.89;102801.66;5022941;28;20048;-69
2023/05/03 00:03:12;;;;;;;3.53;1.30;;;;;;;19.42;36.89;102807.88;5021849;28;20040;-69
2023/05/03 00:05:38;;;;;;;3.22;1.10;;;;;;;19.39;36.75;102806.25;5023007;28;20040;-69
2023/05/03 00:08:04;;;;;;;3.50;1.17;;;;;;;19.38;36.83;102805.41;5022376;28;20462;-69
2023/05/03 00:10:29;;;;;;;2.50;1.30;;;;;;;19.36;36.88;102793.22;5022438;28;20087;-70
2023/05/03 00:12:55;;;;;;;4.60;1.25;;;;;;;19.39;36.84;102806.25;5022106;28;20034;-70
2023/05/03 00:15:20;;;;;;;3.95;1.55;;;;;;;19.35;36.73;102800.28;5022104;28;20033;-70
2023/05/03 00:17:46;;;;;;;5.32;1.58;;;;;;;19.36;36.82;102804.66;5022439;28;20033;-70
2023/05/03 00:20:11;;;;;;;2.83;1.30;;;;;;;19.36;36.60;102804.66;5022553;28;20048;-69
2023/05/03 00:22:36;;;;;;;3.20;1.27;;;;;;;19.34;36.68;102803.00;5022603;28;20348;-70
2023/05/03 00:25:02;;;;;;;3.53;1.63;;;;;;;19.35;36.58;102807.38;5022196;28;20511;-69
2023/05/03 00:27:27;;;;;;;3.55;1.08;;;;;;;19.34;36.79;102806.53;5022106;28;20906;-68
2023/05/03 00:29:53;;;;;;;4.97;1.40;;;;;;;19.30;36.68;102797.06;5022146;28;20544;-69
2023/05/03 00:32:21;;;;;;;3.00;1.03;;;;;;;19.31;36.65;102801.41;5021941;28;20034;-69
2023/05/03 00:34:56;;;;;;;4.47;1.27;;;;;;;19.30;36.77;102796.22;5021747;28;20275;-69
2023/05/03 00:37:22;;;;;;;3.72;1.10;;;;;;;19.31;36.67;102806.69;5020716;28;20029;-70
2023/05/03 00:39:48;;;;;;;3.72;1.45;;;;;;;19.32;36.67;102807.53;5021688;28;20044;-69
2023/05/03 00:42:13;;;;;;;4.47;1.30;;;;;;;19.33;36.70;102806.63;5021891;28;20033;-69
2023/05/03 00:44:38;;;;;;;2.45;1.10;;;;;;;19.31;36.52;102805.81;5020909;28;20135;-70
2023/05/03 00:47:04;;;;;;;2.75;1.20;;;;;;;19.29;36.43;102800.63;5020707;28;20037;-69
2023/05/03 00:49:29;;;;;;;2.72;1.20;;;;;;;19.27;36.71;102804.31;5021719;28;20033;-70
2023/05/03 00:51:56;;;;;;;2.83;1.00;;;;;;;19.27;36.62;102806.94;5021392;28;20478;-70
2023/05/03 00:54:22;;;;;;;3.25;1.30;;;;;;;19.27;36.50;102806.94;5021912;28;20040;-69
2023/05/03 00:56:47;;;;;;;3.05;1.17;;;;;;;19.26;36.33;102802.59;5021202;28;20029;-68
2023/05/03 00:59:13;;;;;;;3.00;1.30;;;;;;;19.25;36.31;102796.47;5021508;28;20044;-68
2023/05/03 01:01:38;;;;;;;4.35;1.45;;;;;;;19.25;36.32;102790.31;5021683;28;20072;-70
2023/05/03 01:04:05;;;;;;;2.80;1.20;;;;;;;19.25;36.42;102792.94;5020055;28;20041;-69
2023/05/03 01:06:42;;;;;;;3.97;1.17;;;;;;;19.24;36.61;102794.75;5021483;28;20483;-69
2023/05/03 01:09:26;;;;;;;3.13;1.30;;;;;;;19.24;36.37;102785.97;5021065;28;20041;-69
2023/05/03 01:12:10;;;;;;;2.80;1.27;;;;;;;19.23;36.39;102790.38;5021467;28;20460;-69
2023/05/03 01:14:42;;;;;;;4.95;1.20;;;;;;;19.24;36.43;102796.53;5021305;28;20541;-69
2023/05/03 01:17:11;;;;;;;3.58;1.15;;;;;;;19.23;36.62;102794.84;5021467;28;20091;-70
2023/05/03 01:19:43;;;;;;;3.65;1.35;;;;;;;19.21;36.30;102794.91;5021223;28;20041;-69
2023/05/03 01:22:11;;;;;;;3.60;1.10;;;;;;;19.23;36.28;102800.13;5019862;28;20075;-69
2023/05/03 01:24:40;;;;;;;3.47;1.10;;;;;;;19.19;36.43;102795.00;5020922;28;20060;-69
2023/05/03 01:27:05;;;;;;;4.45;1.48;;;;;;;19.20;36.17;102802.00;5020939;28;20500;-69
2023/05/03 01:29:31;;;;;;;3.28;1.15;;;;;;;19.20;36.23;102798.47;5020878;28;20041;-68
2023/05/03 01:32:00;;;;;;;4.03;1.10;;;;;;;19.18;36.33;102803.00;5021109;28;20029;-69
2023/05/03 01:34:49;;;;;;;2.78;1.40;;;;;;;19.20;36.16;102803.78;5021057;28;20826;-68
2023/05/03 01:37:16;;;;;;;3.22;1.20;;;;;;;19.18;36.35;102806.53;5020677;28;20044;-67
2023/05/03 01:39:57;;;;;;;2.85;1.17;;;;;;;19.15;36.27;102804.06;5021203;28;20056;-69
2023/05/03 01:42:23;;;;;;;4.78;1.30;;;;;;;19.16;36.27;102803.09;5021398;28;20033;-68
2023/05/03 01:44:49;;;;;;;3.92;1.00;;;;;;;19.19;36.12;102810.00;5021345;28;20025;-69
2023/05/03 01:47:14;;;;;;;3.15;1.25;;;;;;;19.15;36.13;102800.53;5020610;28;20134;-68
2023/05/03 01:49:40;;;;;;;2.78;1.27;;;;;;;19.12;36.28;102804.22;5020848;28;20935;-67
2023/05/03 01:52:05;;;;;;;3.83;1.10;;;;;;;19.15;36.07;102806.69;5020748;28;20535;-68
2023/05/03 01:54:31;;;;;;;3.58;1.30;;;;;;;19.16;36.01;102803.09;5021045;28;20032;-69
2023/05/03 01:56:56;;;;;;;3.97;1.08;;;;;;;19.15;36.15;102809.34;5020432;28;20056;-69
2023/05/03 01:59:21;;;;;;;3.00;1.17;;;;;;;19.13;35.81;102800.63;5021415;28;20075;-70
2023/05/03 02:01:47;;;;;;;2.72;1.00;;;;;;;19.13;36.02;102800.63;5020873;28;20025;-69
2023/05/03 02:04:12;;;;;;;3.05;1.10;;;;;;;19.12;36.07;102806.84;5019701;28;20037;-69
2023/05/03 02:06:37;;;;;;;4.65;1.40;;;;;;;19.11;35.82;102802.50;5020703;28;20229;-69
2023/05/03 02:09:03;;;;;;;3.35;1.30;;;;;;;19.10;36.04;102806.06;5020915;28;20389;-69
2023/05/03 02:11:28;;;;;;;2.40;1.08;;;;;;;19.10;35.94;102803.44;5020906;28;20029;-68
2023/05/03 02:13:53;;;;;;;3.42;1.30;;;;;;;19.10;36.02;102806.06;5020693;28;20371;-68
2023/05/03 02:16:19;;;;;;;3.25;1.25;;;;;;;19.09;36.02;102800.88;5020547;28;20041;-70
2023/05/03 02:18:44;;;;;;;1.98;1.00;;;;;;;19.09;36.15;102800.88;5020964;28;21020;-69
2023/05/03 02:21:10;;;;;;;3.20;1.40;;;;;;;19.08;36.12;102799.19;5021006;28;20096;-68
2023/05/03 02:23:35;;;;;;;4.57;1.23;;;;;;;19.08;35.91;102797.38;5020316;28;20585;-69
2023/05/03 02:26:01;;;;;;;3.30;1.20;;;;;;;19.05;36.05;102789.63;5020460;28;20033;-69
2023/05/03 02:28:26;;;;;;;3.53;1.00;;;;;;;19.07;35.80;102786.91;5020598;28;20032;-68
2023/05/03 02:30:51;;;;;;;4.97;1.20;;;;;;;19.05;36.00;102783.50;5020334;28;20099;-69
2023/05/03 02:33:17;;;;;;;4.63;1.40;;;;;;;19.05;35.93;102781.69;5020813;28;20044;-68
2023/05/03 02:35:42;;;;;;;2.37;1.10;;;;;;;19.06;36.04;102779.88;5020425;28;20044;-70
2023/05/03 02:38:07;;;;;;;3.07;1.20;;;;;;;19.05;35.87;102776.41;5021215;28;20294;-69
2023/05/03 02:40:33;;;;;;;3.65;1.35;;;;;;;19.02;35.94;102768.63;5024048;28;20270;-69
2023/05/03 02:42:58;;;;;;;4.10;1.35;;;;;;;19.02;35.88;102764.19;5023872;28;20076;-68
2023/05/03 02:45:26;;;;;;;3.85;1.30;;;;;;;19.03;35.78;102763.28;5024375;28;20044;-70
2023/05/03 02:47:52;;;;;;;3.38;1.17;;;;;;;19.04;35.91;102764.13;5023430;28;20788;-70
2023/05/03 02:50:17;;;;;;;4.30;1.20;;;;;;;19.02;35.87;102756.28;5024176;28;20120;-70
2023/05/03 02:52:43;;;;;;;4.93;1.17;;;;;;;18.98;35.83;102741.53;5023828;28;20037;-69
2023/05/03 02:55:09;;;;;;;3.35;1.20;;;;;;;19.01;36.02;102749.31;5023976;28;20037;-69
2023/05/03 02:57:34;;;;;;;3.42;1.35;;;;;;;18.99;35.94;102735.34;5023562;28;20068;-68
2023/05/03 03:00:00;;;;;;;4.07;1.50;;;;;;;19.00;35.66;102741.47;5023828;28;20044;-69
2023/05/03 03:02:25;;;;;;;5.03;1.20;;;;;;;18.98;35.88;102740.69;5023897;28;20140;-70
2023/05/03 03:04:50;;;;;;;3.17;1.20;;;;;;;19.00;35.78;102749.38;5023343;28;20033;-70
2023/05/03 03:07:16;;;;;;;5.07;1.20;;;;;;;18.98;35.86;102749.47;5023710;28;20025;-69
2023/05/03 03:09:41;;;;;;;3.75;1.63;;;;;;;18.99;35.75;102764.41;5023434;28;20068;-70
2023/05/03 03:12:06;;;;;;;2.65;1.10;;;;;;;18.96;36.00;102761.91;5023793;28;20160;-69
2023/05/03 03:14:32;;;;;;;3.85;1.20;;;;;;;18.95;35.62;102762.84;5023328;28;20026;-68
2023/05/03 03:16:57;;;;;;;4.53;1.38;;;;;;;18.96;35.69;102766.34;5023422;28;20079;-70
2023/05/03 03:19:22;;;;;;;4.28;1.20;;;;;;;18.94;35.71;102758.50;5023349;28;20033;-70
2023/05/03 03:21:48;;;;;;;4.33;1.33;;;;;;;18.93;35.63;102754.16;5023730;28;20033;-69
2023/05/03 03:24:14;;;;;;;5.05;1.30;;;;;;;18.95;35.74;102757.56;5022824;28;20294;-69
2023/05/03 03:26:39;;;;;;;3.28;1.00;;;;;;;18.94;35.63;102763.78;5023501;28;20021;-69
2023/05/03 03:29:05;;;;;;;5.13;1.30;;;;;;;18.94;35.76;102768.22;5022816;28;20033;-70
2023/05/03 03:31:30;;;;;;;3.50;1.10;;;;;;;18.92;35.71;102772.75;5023397;28;20056;-68
2023/05/03 03:33:56;;;;;;;3.13;1.20;;;;;;;18.95;35.51;102772.56;5023027;28;20116;-69
2023/05/03 03:36:21;;;;;;;2.42;1.13;;;;;;;18.92;35.72;102772.75;5023094;28;20040;-68
2023/05/03 03:38:46;;;;;;;2.50;1.13;;;;;;;18.91;35.62;102766.56;5022963;28;20033;-69
2023/05/03 03:41:12;;;;;;;2.50;1.17;;;;;;;18.90;35.59;102766.66;5022550;28;20051;-68
2023/05/03 03:43:37;;;;;;;2.88;1.10;;;;;;;18.92;35.69;102764.81;5023394;28;20436;-69
2023/05/03 03:46:02;;;;;;;3.10;1.02;;;;;;;18.90;35.52;102764.03;5023033;28;20036;-68
2023/05/03 03:48:27;;;;;;;2.28;1.10;;;;;;;18.90;35.63;102761.38;5022547;28;20029;-69
2023/05/03 03:50:53;;;;;;;3.55;1.10;;;;;;;18.91;35.38;102755.16;5053809;28;20462;-70
2023/05/03 03:53:18;;;;;;;3.33;1.30;;;;;;;18.91;35.50;102763.09;5022687;28;20034;-68
2023/05/03 03:55:43;;;;;;;3.08;1.10;;;;;;;18.89;35.65;102760.53;5022966;28;20493;-69
2023/05/03 03:58:09;;;;;;;3.33;1.30;;;;;;;18.87;35.40;102761.53;5022638;28;20506;-69
2023/05/03 04:00:37;;;;;;;3.60;1.20;;;;;;;18.89;35.34;102772.91;5022840;28;20033;-69
2023/05/03 04:03:04;;;;;;;3.40;1.20;;;;;;;18.84;35.41;102771.34;5022415;28;20120;-68
2023/05/03 04:05:29;;;;;;;4.43;1.30;;;;;;;18.84;35.45;102775.78;5022540;28;20359;-69
2023/05/03 04:07:54;;;;;;;3.42;1.30;;;;;;;18.82;35.62;102762.63;5022489;28;20051;-68
2023/05/03 04:10:20;;;;;;;2.55;1.10;;;;;;;18.85;35.63;102772.22;5022068;28;20045;-69
2023/05/03 04:12:45;;;;;;;1.85;1.10;;;;;;;18.85;35.65;102781.00;5022542;28;20037;-67
2023/05/03 04:15:10;;;;;;;4.53;1.50;;;;;;;18.82;35.50;102775.00;5022045;28;20025;-69
2023/05/03 04:17:36;;;;;;;3.75;1.20;;;;;;;18.83;35.55;102776.69;5021976;28;20041;-68
2023/05/03 04:20:09;;;;;;;2.63;1.02;;;;;;;18.84;35.50;102778.44;5022296;28;20068;-68
2023/05/03 04:22:36;;;;;;;2.35;1.08;;;;;;;18.84;35.61;102775.78;5022297;28;20060;-68
2023/05/03 04:25:01;;;;;;;3.40;1.10;;;;;;;18.85;35.40;102774.88;5022234;28;20054;-69
2023/05/03 04:27:26;;;;;;;3.05;1.30;;;;;;;18.84;35.45;102776.63;5022301;28;20033;-69
2023/05/03 04:29:52;;;;;;;6.63;1.50;;;;;;;18.82;35.35;102773.19;5022132;28;20052;-69
2023/05/03 04:32:21;;;;;;;5.00;1.30;;;;;;;18.83;35.43;102780.19;5021967;28;20099;-69
2023/05/03 04:34:47;;;;;;;2.55;1.20;;;;;;;18.80;35.38;102775.06;5021696;28;20029;-68
2023/05/03 04:37:13;;;;;;;3.45;1.23;;;;;;;18.82;35.36;102788.19;5020534;28;20054;-69
2023/05/03 04:39:38;;;;;;;4.07;1.30;;;;;;;18.82;35.39;102793.50;5021878;28;20046;-69
2023/05/03 04:42:03;;;;;;;5.20;2.10;;;;;;;18.81;35.30;102797.91;5022064;28;20565;-70
2023/05/03 04:44:29;;;;;;;3.40;1.40;;;;;;;18.80;35.27;102798.84;5020392;28;20043;-69
2023/05/03 04:46:54;;;;;;;4.07;1.20;;;;;;;18.79;35.34;102807.69;5021350;28;20033;-70
2023/05/03 04:49:19;;;;;;;2.75;1.20;;;;;;;18.80;35.38;102819.09;5021480;28;20033;-70
2023/05/03 04:51:44;;;;;;;3.15;1.52;;;;;;;18.81;35.22;102826.09;5022025;28;20469;-70
2023/05/03 04:54:10;;;;;;;4.10;1.20;;;;;;;18.77;35.38;102819.28;5021885;28;20036;-70
2023/05/03 04:56:35;;;;;;;3.05;1.17;;;;;;;18.79;35.29;102825.34;5021370;28;20262;-70
2023/05/03 04:59:00;;;;;;;3.60;1.35;;;;;;;18.78;35.31;102836.84;5021414;28;20044;-70
2023/05/03 05:01:27;;;;;;;2.97;1.10;;;;;;;18.80;35.27;102845.53;5021177;28;20029;-69
2023/05/03 05:03:53;;;;;;;3.78;1.42;;;;;;;18.77;35.32;102843.03;5021347;28;20029;-69
2023/05/03 05:06:19;;;;;;;5.20;1.30;;;;;;;18.79;35.35;102849.13;5021927;28;20474;-68
2023/05/03 05:08:44;;;;;;;2.35;1.02;;;;;;;18.79;35.33;102851.75;5021315;28;20035;-69
2023/05/03 05:11:11;;;;;;;4.85;1.35;;;;;;;18.76;35.38;102849.28;5021815;28;20460;-68
2023/05/03 05:13:38;;;;;;;3.08;1.42;;;;;;;18.73;35.21;102844.16;5021391;28;20037;-70
2023/05/03 05:16:03;;;;;;;5.70;1.60;;;;;;;18.73;35.65;102845.00;5020956;28;20099;-69
2023/05/03 05:18:28;;;;;;;3.83;1.30;;;;;;;18.68;36.41;102837.31;5021655;28;20037;-67
2023/05/03 05:20:54;;;;;;;2.42;1.08;;;;;;;18.72;36.23;102843.28;5021578;28;20112;-68
2023/05/03 05:23:19;;;;;;;3.22;1.00;;;;;;;18.73;36.31;102841.50;5021108;28;20037;-69
2023/05/03 05:25:44;;;;;;;4.18;1.00;;;;;;;18.75;36.65;102844.91;5021192;28;20029;-69
2023/05/03 05:28:10;;;;;;;4.78;1.00;;;;;;;18.75;37.05;102837.84;5021218;28;20037;-68
2023/05/03 05:30:35;;;;;;;2.27;0.93;;;;;;;18.79;37.00;102839.41;5020860;28;20079;-68
2023/05/03 05:33:00;;;;;;;3.13;1.10;;;;;;;18.81;36.85;102834.88;5021260;28;20350;-68
2023/05/03 05:35:26;;;;;;;3.38;1.10;;;;;;;18.86;36.66;102834.66;5020476;28;20135;-69
2023/05/03 05:37:51;;;;;;;1.63;0.80;;;;;;;18.88;36.69;102838.06;5021027;28;20029;-69
2023/05/03 05:40:16;;;;;;;5.13;1.08;;;;;;;18.90;36.72;102838.00;5003369;28;20136;-69
2023/05/03 05:42:42;;;;;;;3.08;0.80;;;;;;;18.95;36.73;102838.63;5021083;28;20033;-69
2023/05/03 05:45:07;;;;;;;3.97;1.05;;;;;;;18.98;36.67;102838.47;5020719;28;20954;-68
2023/05/03 05:47:33;;;;;;;2.33;0.85;;;;;;;18.95;36.50;102822.78;5020728;28;20128;-68
2023/05/03 05:49:58;;;;;;;2.30;0.82;;;;;;;19.02;36.52;102835.53;5020975;28;20095;-69
2023/05/03 05:52:23;;;;;;;1.50;0.80;;;;;;;19.03;36.39;102834.63;5021387;28;20039;-69
2023/05/03 05:54:49;;;;;;;3.10;1.10;;;;;;;19.08;36.55;102839.66;5021081;28;20033;-68
2023/05/03 05:57:14;;;;;;;2.58;0.88;;;;;;;19.10;36.49;102851.00;5020621;28;20029;-70
2023/05/03 05:59:39;;;;;;;2.13;0.90;;;;;;;19.11;36.11;102850.06;5020735;28;20541;-69
2023/05/03 06:02:13;;;;;;;3.85;0.98;;;;;;;19.11;36.50;102858.00;5020778;28;20390;-70
2023/05/03 06:04:38;;;;;;;2.42;1.00;;;;;;;19.14;36.20;102851.72;5019698;28;20054;-69
2023/05/03 06:07:04;;;;;;;2.17;0.70;;;;;;;19.16;36.54;102850.66;5020720;28;20049;-71
2023/05/03 06:09:29;;;;;;;3.10;0.98;;;;;;;19.15;36.45;102848.97;5020401;28;20025;-69
2023/05/03 06:11:54;;;;;;;3.53;0.80;;;;;;;19.16;36.47;102842.75;5020883;28;20489;-69
2023/05/03 06:14:20;;;;;;;2.35;0.90;;;;;;;19.18;36.46;102848.81;5023052;28;20121;-69
2023/05/03 06:16:46;;;;;;;2.35;0.88;;;;;;;19.19;36.37;102839.09;5024906;28;20040;-69
2023/05/03 06:19:11;;;;;;;4.50;0.90;;;;;;;19.19;36.40;102837.28;5024428;28;20033;-69
2023/05/03 06:21:36;;;;;;;3.47;1.05;;;;;;;19.21;36.25;102834.56;5024418;28;20029;-69
2023/05/03 06:24:01;;;;;;;2.58;0.90;;;;;;;19.20;36.40;102830.19;5024226;28;20557;-70
2023/05/03 06:26:27;;;;;;;2.45;0.90;;;;;;;19.20;36.38;102827.56;5022880;28;20043;-70
2023/05/03 06:28:52;;;;;;;1.88;0.80;;;;;;;19.20;36.20;102833.72;5023889;28;20391;-70
2023/05/03 06:31:17;;;;;;;2.25;0.70;;;;;;;19.23;36.25;102837.13;5024052;28;20056;-70
2023/05/03 06:33:43;;;;;;;2.25;0.90;;;;;;;19.24;36.37;102838.84;5024317;28;20127;-69
2023/05/03 06:36:08;;;;;;;2.15;0.90;;;;;;;19.23;36.17;102839.75;5024075;28;20273;-69
2023/05/03 06:38:34;;;;;;;3.13;1.05;;;;;;;19.23;36.30;102832.69;5022573;28;20139;-70
2023/05/03 06:40:59;;;;;;;3.78;0.90;;;;;;;19.22;36.37;102828.34;5021973;28;20049;-70
2023/05/03 06:43:24;;;;;;;3.17;0.98;;;;;;;19.21;36.47;102830.13;5022793;28;20083;-69
2023/05/03 06:45:51;;;;;;;1.58;0.77;;;;;;;19.24;36.44;102836.19;5022584;28;20033;-69
2023/05/03 06:48:17;;;;;;;2.95;0.90;;;;;;;19.23;36.22;102823.91;5021775;28;20116;-68
2023/05/03 06:50:42;;;;;;;2.70;0.90;;;;;;;19.23;36.38;102824.75;5022636;28;20039;-68
2023/05/03 06:53:07;;;;;;;2.27;1.03;;;;;;;19.23;36.40;102818.63;5022709;28;20278;-69
2023/05/03 06:55:33;;;;;;;1.80;0.80;;;;;;;19.21;36.49;102814.25;5024056;28;20263;-68
2023/05/03 06:57:58;;;;;;;3.08;0.95;;;;;;;19.20;36.45;102804.66;5023737;28;20030;-69
2023/05/03 07:00:24;;;;;;;2.90;0.73;;;;;;;19.20;36.47;102809.94;5023717;28;20033;-68
2023/05/03 07:02:50;;;;;;;3.47;1.08;;;;;;;19.21;36.49;102810.78;5023903;28;20026;-69
2023/05/03 07:05:16;;;;;;;3.50;0.88;;;;;;;19.26;36.44;102821.09;5023645;28;20393;-68
2023/05/03 07:07:41;;;;;;;3.20;1.00;;;;;;;19.27;36.01;102814.88;5023481;28;20036;-69
2023/05/03 07:10:07;;;;;;;4.80;1.13;;;;;;;19.28;36.21;102822.72;5023364;28;20033;-68
2023/05/03 07:12:32;;;;;;;2.97;0.80;;;;;;;19.28;36.47;102824.50;5023177;28;20749;-68
2023/05/03 07:14:57;;;;;;;2.65;1.08;;;;;;;19.26;36.68;102827.22;5023522;28;20040;-69
2023/05/03 07:17:24;;;;;;;2.67;1.05;;;;;;;19.23;36.65;102811.53;5022907;28;20042;-69
2023/05/03 07:19:50;;;;;;;3.03;1.17;;;;;;;19.27;36.69;102812.25;5023663;28;20037;-70
2023/05/03 07:22:16;;;;;;;3.05;0.95;;;;;;;19.27;37.15;102821.00;5023314;28;20139;-69
2023/05/03 07:24:41;;;;;;;2.88;1.10;;;;;;;19.29;37.10;102823.56;5022416;28;20060;-70
2023/05/03 07:27:07;;;;;;;2.78;1.00;;;;;;;19.29;36.99;102818.28;5022934;28;20037;-69
2023/05/03 07:29:32;;;;;;;5.05;1.40;;;;;;;19.30;37.20;102827.94;5022154;28;20043;-69
2023/05/03 07:31:58;;;;;;;2.90;1.17;;;;;;;19.28;37.44;102820.09;5023049;28;20466;-70
2023/05/03 07:34:23;;;;;;;3.60;1.10;;;;;;;19.31;37.42;102813.75;5022940;28;20119;-70
2023/05/03 07:36:49;;;;;;;2.83;0.93;;;;;;;19.31;37.49;102811.13;5023141;28;20431;-69
2023/05/03 07:39:14;;;;;;;3.83;1.00;;;;;;;19.32;37.67;102807.53;5021440;28;20429;-70
2023/05/03 07:41:40;;;;;;;2.17;0.90;;;;;;;19.32;37.89;102800.44;5023055;28;20033;-69
2023/05/03 07:44:05;;;;;;;2.85;0.88;;;;;;;19.32;37.65;102802.25;5022943;28;20052;-70
2023/05/03 07:46:34;;;;;;;2.88;1.00;;;;;;;19.32;37.48;102800.44;5023363;28;20173;-69
2023/05/03 07:49:00;;;;;;;3.13;0.88;;;;;;;19.28;37.76;102790.13;5022660;28;20037;-70
2023/05/03 07:51:25;;;;;;;3.15;1.10;;;;;;;19.35;38.19;102810.03;5022886;28;20603;-70
2023/05/03 07:53:51;;;;;;;5.10;1.02;;;;;;;19.35;38.18;102805.56;5023116;28;20040;-70
2023/05/03 07:56:16;;;;;;;2.72;0.93;;;;;;;19.36;38.62;102791.44;5022518;28;20037;-71
2023/05/03 07:58:41;;;;;;;2.95;1.00;;;;;;;19.39;38.43;102793.03;5022836;28;20159;-68
2023/05/03 08:01:07;;;;;;;5.63;1.27;;;;;;;19.38;38.59;102783.41;5021110;28;20519;-70
2023/05/03 08:03:32;;;;;;;4.15;1.20;;;;;;;19.35;38.56;102783.59;5021048;28;20041;-70
2023/05/03 08:05:57;;;;;;;3.03;0.80;;;;;;;19.36;38.54;102780.00;5022531;28;20470;-69
2023/05/03 08:08:22;;;;;;;2.00;0.85;;;;;;;19.39;38.71;102775.41;5022277;28;20044;-71
2023/05/03 08:10:50;;;;;;;2.13;0.77;;;;;;;19.41;38.60;102775.31;5022163;28;20065;-70
2023/05/03 08:13:16;;;;;;;2.55;0.80;;;;;;;19.37;38.76;102766.69;5022543;28;20041;-70
2023/05/03 08:15:41;;;;;;;2.38;0.98;;;;;;;19.40;38.86;102757.72;5022298;28;20029;-71
2023/05/03 08:18:06;;;;;;;5.07;1.08;;;;;;;19.42;38.89;102755.84;5022471;28;20034;-70
2023/05/03 08:20:35;;;;;;;3.53;0.90;;;;;;;19.41;38.74;102756.81;5021912;28;20040;-69
2023/05/03 08:23:01;;;;;;;3.17;1.00;;;;;;;19.40;38.85;102757.72;5021622;28;20033;-69
2023/05/03 08:25:27;;;;;;;2.00;0.80;;;;;;;19.37;38.89;102758.75;5020630;28;20134;-70
2023/05/03 08:27:52;;;;;;;2.70;0.90;;;;;;;19.43;39.14;102768.13;5021698;28;20084;-70
2023/05/03 08:30:20;;;;;;;3.53;0.95;;;;;;;19.44;38.90;102759.28;5020579;28;20033;-70
2023/05/03 08:32:47;;;;;;;3.38;1.02;;;;;;;19.45;38.92;102752.19;5021991;28;20045;-71
2023/05/03 08:35:14;;;;;;;3.63;0.80;;;;;;;19.45;38.91;102757.47;5021638;28;20558;-70
2023/05/03 08:37:40;;;;;;;4.57;1.13;;;;;;;19.45;38.89;102755.66;5021512;28;20053;-69
2023/05/03 08:40:09;;;;;;;4.70;1.00;;;;;;;19.46;38.88;102754.75;5022466;28;20047;-69
2023/05/03 08:42:38;;;;;;;2.85;1.02;;;;;;;19.44;38.83;102753.97;5021916;28;20083;-70
2023/05/03 08:45:05;;;;;;;4.82;1.20;;;;;;;19.47;38.51;102752.94;5021893;28;20045;-70
2023/05/03 08:47:34;;;;;;;2.60;1.00;;;;;;;19.44;38.59;102746.06;5021096;28;20552;-71
2023/05/03 08:50:03;;;;;;;5.25;1.00;;;;;;;19.46;38.35;102751.25;5021822;28;20116;-72
2023/05/03 08:52:30;;;;;;;4.85;1.17;;;;;;;19.46;38.30;102752.09;5021606;28;20407;-69
2023/05/03 08:54:55;;;;;;;3.28;1.00;;;;;;;19.45;38.35;102755.66;5021406;28;20088;-70
2023/05/03 08:57:23;;;;;;;2.60;0.90;;;;;;;19.44;38.30;102759.28;5020386;28;20446;-70
2023/05/03 08:59:49;;;;;;;5.65;1.25;;;;;;;19.45;38.37;102765.41;5021852;28;20037;-70
2023/05/03 09:02:16;;;;;;;3.65;1.00;;;;;;;19.44;38.30;102771.63;5021342;28;20037;-70
2023/05/03 09:04:41;;;;;;;2.92;0.80;;;;;;;19.43;38.10;102772.56;5021210;28;20546;-69
2023/05/03 09:07:10;;;;;;;3.75;1.05;;;;;;;19.42;38.32;102760.28;5021378;28;20163;-71
2023/05/03 09:09:36;;;;;;;2.50;0.90;;;;;;;19.43;38.23;102770.78;5021330;28;20036;-70
2023/05/03 09:12:02;;;;;;;2.95;0.95;;;;;;;19.44;38.33;102761.91;5021197;28;20041;-70
2023/05/03 09:14:28;;;;;;;2.80;1.00;;;;;;;19.39;38.17;102762.19;5021236;28;20029;-69
2023/05/03 09:16:53;;;;;;;2.40;1.00;;;;;;;19.44;38.24;102764.56;5020962;28;20025;-70
2023/05/03 09:19:20;;;;;;;1.85;0.80;;;;;;;19.43;38.50;102762.00;5022236;28;20037;-68
2023/05/03 09:21:46;;;;;;;2.47;1.00;;;;;;;19.41;37.99;102767.38;5022060;28;20037;-69
2023/05/03 09:24:18;;;;;;;3.58;1.08;;;;;;;19.40;38.40;102765.66;5021258;28;20056;-69
2023/05/03 09:26:45;;;;;;;3.08;0.95;;;;;;;19.42;38.17;102762.94;5021270;28;20050;-69
2023/05/03 09:29:29;;;;;;;3.17;0.98;;;;;;;19.40;38.22;102758.56;5019682;28;20091;-70
2023/05/03 09:32:00;;;;;;;3.25;1.08;;;;;;;19.41;38.06;102762.09;5019364;28;20116;-69
2023/05/03 09:34:25;;;;;;;3.92;0.90;;;;;;;19.42;38.04;102761.13;5021561;28;20092;-72
2023/05/03 09:36:50;;;;;;;2.45;1.00;;;;;;;19.44;37.60;102767.22;5021171;28;20041;-69
2023/05/03 09:39:16;;;;;;;2.40;0.90;;;;;;;19.40;37.98;102755.94;5021301;28;20063;-69
2023/05/03 09:41:42;;;;;;;1.45;0.80;;;;;;;19.40;37.98;102758.56;5020970;28;20079;-69
2023/05/03 09:44:07;;;;;;;1.95;0.98;;;;;;;19.42;37.95;102763.78;5021511;28;20033;-71
2023/05/03 09:46:32;;;;;;;2.45;0.95;;;;;;;19.40;37.90;102758.56;5020562;28;20037;-70
2023/05/03 09:48:58;;;;;;;2.95;0.90;;;;;;;19.38;38.05;102749.88;5025029;28;20037;-69
2023/05/03 09:51:23;;;;;;;3.08;0.90;;;;;;;19.42;38.15;102747.91;5025012;28;20421;-72
2023/05/03 09:53:50;;;;;;;4.05;0.93;;;;;;;19.39;37.99;102746.31;5025640;28;20025;-72
2023/05/03 09:56:16;;;;;;;3.88;0.93;;;;;;;19.47;38.28;102737.06;5020153;28;20034;-67
2023/05/03 09:58:45;;;;;;;4.82;1.20;;;;;;;19.53;38.09;102728.78;5023590;28;20065;-70
2023/05/03 10:01:12;;;;;;;2.03;0.82;;;;;;;19.56;38.05;102740.03;5024266;28;20073;-65
2023/05/03 10:03:42;;;;;;;2.88;1.00;;;;;;;19.54;38.00;102741.09;5024123;28;20460;-70
2023/05/03 10:06:30;;;;;;;3.55;1.08;;;;;;;19.51;38.34;102744.75;5023110;28;20029;-67
2023/05/03 10:09:09;;;;;;;2.83;1.08;;;;;;;19.50;38.25;102729.84;5022977;28;20029;-66
2023/05/03 10:11:35;;;;;;;4.00;0.98;;;;;;;19.46;38.47;102738.03;5024964;28;20033;-70
2023/05/03 10:14:01;;;;;;;3.65;0.90;;;;;;;19.44;38.44;102721.38;5024146;28;20912;-67
2023/05/03 10:16:35;;;;;;;2.78;1.00;;;;;;;19.44;38.57;102731.97;5024178;28;20037;-67
2023/05/03 10:19:15;;;;;;;;;;;;;;;19.54;38.50;102730.50;5024050;28;20030;-69
2023/05/03 10:22:06;;;;;;;4.30;0.90;;;;;;;19.62;38.25;102736.19;5022518;28;20472;-69
2023/05/03 10:24:36;;;;;;;3.53;0.80;;;;;;;19.64;38.19;102730.81;5024163;28;20107;-69
2023/05/03 10:27:06;;;;;;;5.00;1.20;;;;;;;19.58;38.11;102734.66;5019436;28;20065;-69
2023/05/03 10:29:34;;;;;;;3.00;1.00;;;;;;;19.54;38.25;102743.72;5023621;28;20033;-70
2023/05/03 10:32:27;;;;;;;2.58;0.98;;;;;;;19.50;38.52;102739.53;5023659;28;20040;-67
2023/05/03 10:35:09;;;;;;;2.63;0.82;;;;;;;19.55;38.32;102737.47;5018078;28;20053;-68
2023/05/03 10:37:36;;;;;;;3.38;1.05;;;;;;;19.64;38.31;102731.66;5022974;28;20048;-66
2023/05/03 10:40:15;;;;;;;6.22;1.02;;;;;;;19.68;37.97;102725.28;5024321;28;20372;-67
2023/05/03 10:42:54;;;;;;;3.47;1.27;;;;;;;19.70;38.06;102722.53;5024411;28;20102;-65
2023/05/03 10:45:30;;;;;;;3.10;0.90;;;;;;;19.69;38.18;102719.03;5024196;28;20474;-68
2023/05/03 10:48:11;;;;;;;3.47;0.95;;;;;;;19.69;38.17;102729.63;5023728;28;20037;-64
2023/05/03 10:50:40;;;;;;;2.08;0.80;;;;;;;19.69;38.43;102712.88;5022976;28;20057;-65
2023/05/03 10:53:05;;;;;;;3.20;0.88;;;;;;;19.69;38.30;102732.28;5023971;28;20069;-63
2023/05/03 10:55:31;;;;;;;2.53;0.90;;;;;;;19.65;38.45;102722.78;5024090;28;20072;-67
2023/05/03 10:57:58;;;;;;;7.95;1.40;;;;;;;19.65;38.34;102719.31;5023481;28;20083;-67
2023/05/03 11:00:36;;;;;;;4.90;1.38;;;;;;;19.64;38.59;102731.66;5022913;28;20509;-67
2023/05/03 11:03:17;;;;;;;5.82;1.52;;;;;;;19.65;38.21;102727.25;5023976;28;20037;-67
2023/05/03 11:05:42;;;;;;;5.97;1.42;;;;;;;19.66;38.47;102721.00;5023906;28;20034;-65
2023/05/03 11:08:13;;;;;;;5.13;1.50;;;;;;;19.65;38.38;102720.16;5023460;28;20036;-65
2023/05/03 11:10:39;;;;;;;14.00;1.50;;;;;;;19.63;38.33;102716.75;5023844;28;20061;-65
2023/05/03 11:13:05;;;;;;;4.25;1.20;;;;;;;19.65;38.41;102711.38;5023511;28;20515;-66
2023/05/03 11:15:31;;;;;;;7.63;2.15;;;;;;;19.64;38.05;102707.84;5023697;28;20025;-67
2023/05/03 11:17:57;;;;;;;4.90;1.35;;;;;;;19.63;38.28;102700.88;5021826;28;20041;-65
2023/05/03 11:20:23;;;;;;;6.07;1.65;;;;;;;19.62;38.41;102700.97;5023045;28;20044;-64
2023/05/03 11:22:48;;;;;;;5.75;1.42;;;;;;;19.61;38.23;102697.44;5023377;28;20473;-66